Fairbank, Illinois
Current Conditions -  °F | °C
As of 1:52 AM on Sunday 26 Oct 2014 (Local Time) from KMLI Reporting Station
Clear Clear  
Wind Chill: 41°   Ceiling: Unl
Heat Index: 41°   Visibility: 10mi
Dew Point: 36°   Wind: 0mph
Humidity: 82%   Direction: NA
Pressure: 30.04"   Gusts: NA
Location:  41.4828°N, 90.1801°W
Report Text: KMLI 260652Z AUTO 00000KT 10SM CLR 05/02 A3004 RMK AO2 SLP173 T00500022 $
Loading
Personal Weather Stations






























Interactive Weather Map New forecast layout! Learn more

10-Day Weather Forecast

Advertisements
Track Severe Weather on mobile